Time;durP1;ratioP1;P1;durP2;ratioP2;P2;SDS_P1;SDS_P2;PMS_P1;PMS_P2;Temp;Humidity;BMP_temperature;BMP_pressure;BME280_temperature;BME280_humidity;BME280_pressure;Samples;Min_cycle;Max_cycle;Signal;HPM_P1;HPM_P2
2023/10/22 00:00:08;;;;;;;3.47;1.05;;;11.70;99.90;;;;;;4953065;29;20024;-73
2023/10/22 00:02:35;;;;;;;14.40;1.30;;;11.80;99.90;;;;;;4920316;29;20036;-73
2023/10/22 00:05:04;;;;;;;0.73;0.52;;;11.80;99.90;;;;;;4942123;29;20090;-73
2023/10/22 00:07:31;;;;;;;9.65;1.40;;;11.80;99.90;;;;;;4926048;29;20395;-73
2023/10/22 00:09:57;;;;;;;12.32;1.40;;;11.80;99.90;;;;;;4941460;29;20027;-73
2023/10/22 00:12:23;;;;;;;1.60;0.90;;;11.70;99.90;;;;;;4912259;29;20098;-73
2023/10/22 00:14:49;;;;;;;2.58;1.05;;;11.70;99.90;;;;;;4922936;29;20068;-73
2023/10/22 00:17:15;;;;;;;8.15;1.52;;;11.70;99.90;;;;;;4939167;29;20024;-73
2023/10/22 00:19:41;;;;;;;2.10;0.85;;;11.70;99.90;;;;;;4928404;29;20024;-73
2023/10/22 00:22:09;;;;;;;2.08;0.98;;;11.70;99.90;;;;;;4941720;29;20031;-73
2023/10/22 00:24:35;;;;;;;2.10;1.13;;;11.70;99.90;;;;;;4936995;29;20032;-73
2023/10/22 00:27:01;;;;;;;3.35;1.08;;;11.70;99.90;;;;;;4944741;29;20047;-73
2023/10/22 00:29:27;;;;;;;1.65;0.73;;;11.70;99.90;;;;;;4930490;29;20488;-73
2023/10/22 00:31:53;;;;;;;2.40;0.93;;;11.70;99.90;;;;;;4937165;29;20054;-73
2023/10/22 00:34:21;;;;;;;1.90;0.80;;;11.70;99.90;;;;;;4950160;29;20109;-73
2023/10/22 00:36:47;;;;;;;3.28;0.95;;;11.70;99.90;;;;;;4912521;29;20047;-73
2023/10/22 00:39:12;;;;;;;1.85;0.57;;;11.60;99.90;;;;;;4965960;28;20031;-73
2023/10/22 00:41:38;;;;;;;8.40;0.65;;;11.70;99.90;;;;;;4939261;29;20027;-73
2023/10/22 00:44:05;;;;;;;1.58;0.63;;;11.70;99.90;;;;;;4936313;29;20049;-73
2023/10/22 00:46:31;;;;;;;0.30;0.30;;;11.70;99.90;;;;;;4927827;29;20074;-71
2023/10/22 00:48:57;;;;;;;2.20;0.63;;;11.70;99.90;;;;;;4949219;28;20534;-71
2023/10/22 00:51:23;;;;;;;2.78;0.63;;;11.80;99.90;;;;;;4928250;29;20651;-72
2023/10/22 00:53:51;;;;;;;4.53;1.02;;;11.80;99.90;;;;;;4945854;29;20039;-73
2023/10/22 00:56:17;;;;;;;0.82;0.50;;;11.90;99.90;;;;;;4936288;29;20071;-73
2023/10/22 00:58:44;;;;;;;1.15;0.60;;;11.90;99.90;;;;;;4943324;29;20693;-72
2023/10/22 01:01:10;;;;;;;6.00;1.83;;;11.70;99.90;;;;;;4941406;23;20044;-71
2023/10/22 01:03:37;;;;;;;9.50;1.40;;;11.70;99.90;;;;;;4932785;29;20051;-70
2023/10/22 01:06:06;;;;;;;1.45;0.57;;;11.40;99.90;;;;;;4928039;29;20032;-70
2023/10/22 01:08:36;;;;;;;1.98;0.90;;;11.30;99.90;;;;;;4942902;29;20122;-71
2023/10/22 01:11:10;;;;;;;8.75;2.13;;;11.20;99.90;;;;;;4920497;29;20044;-71
2023/10/22 01:13:38;;;;;;;3.22;1.08;;;11.00;99.90;;;;;;4927339;29;20038;-70
2023/10/22 01:16:06;;;;;;;1.20;1.10;;;11.00;99.90;;;;;;4928308;29;20107;-70
2023/10/22 01:18:32;;;;;;;1.45;0.70;;;10.90;99.90;;;;;;4924720;29;20059;-71
2023/10/22 01:20:58;;;;;;;2.25;0.70;;;10.90;99.90;;;;;;4928508;29;20429;-71
2023/10/22 01:23:24;;;;;;;2.05;0.68;;;10.90;99.90;;;;;;4933944;29;20090;-71
2023/10/22 01:25:51;;;;;;;3.97;1.30;;;10.80;99.90;;;;;;4934055;29;20078;-71
2023/10/22 01:28:17;;;;;;;1.50;0.60;;;10.80;99.90;;;;;;4918404;29;20050;-71
2023/10/22 01:30:43;;;;;;;2.00;0.95;;;10.80;99.90;;;;;;4930277;29;20044;-72
2023/10/22 01:33:08;;;;;;;1.77;0.88;;;10.80;99.90;;;;;;4933557;29;20119;-71
2023/10/22 01:35:35;;;;;;;1.73;0.98;;;10.70;99.90;;;;;;4933183;29;20099;-71
2023/10/22 01:38:00;;;;;;;0.85;0.65;;;10.70;99.90;;;;;;4924999;29;20078;-71
2023/10/22 01:40:26;;;;;;;6.60;0.75;;;10.70;99.90;;;;;;4921531;29;20480;-71
2023/10/22 01:42:52;;;;;;;1.70;1.17;;;10.70;99.90;;;;;;4926737;29;20465;-71
2023/10/22 01:45:20;;;;;;;2.90;0.47;;;10.70;99.90;;;;;;4934265;29;20059;-71
2023/10/22 01:47:46;;;;;;;1.85;0.80;;;10.70;99.90;;;;;;4895209;29;20036;-71
2023/10/22 01:50:12;;;;;;;0.80;0.40;;;10.70;99.90;;;;;;4939395;29;20036;-71
2023/10/22 01:52:38;;;;;;;1.77;0.80;;;10.70;99.90;;;;;;4923049;29;20622;-71
2023/10/22 01:55:04;;;;;;;8.32;0.85;;;10.70;99.90;;;;;;4927915;29;20028;-70
2023/10/22 01:57:30;;;;;;;3.83;0.93;;;10.60;99.90;;;;;;4931975;29;20143;-71
2023/10/22 01:59:56;;;;;;;1.90;0.80;;;10.60;99.90;;;;;;4954074;29;20038;-69
2023/10/22 02:02:21;;;;;;;1.35;0.68;;;10.60;99.90;;;;;;4945466;29;20027;-70
2023/10/22 02:04:47;;;;;;;3.22;0.98;;;10.60;99.90;;;;;;4937429;29;20023;-70
2023/10/22 02:07:13;;;;;;;6.03;1.15;;;10.50;99.90;;;;;;4932862;29;20103;-70
2023/10/22 02:09:39;;;;;;;4.25;1.95;;;10.50;99.90;;;;;;4935569;29;20036;-72
2023/10/22 02:12:08;;;;;;;7.03;2.65;;;10.50;99.90;;;;;;4932480;29;20604;-71
2023/10/22 02:14:33;;;;;;;10.55;2.45;;;10.60;99.90;;;;;;4936036;29;20108;-71
2023/10/22 02:16:59;;;;;;;3.83;1.58;;;10.60;99.90;;;;;;4928278;29;20039;-71
2023/10/22 02:19:26;;;;;;;9.50;1.77;;;10.60;99.90;;;;;;4935066;29;20448;-71
2023/10/22 02:21:53;;;;;;;2.28;1.25;;;10.60;99.90;;;;;;4932091;29;20047;-71
2023/10/22 02:24:19;;;;;;;2.63;1.52;;;10.70;99.90;;;;;;4936539;28;20042;-71
2023/10/22 02:26:46;;;;;;;7.32;1.98;;;10.60;99.90;;;;;;4932136;29;20039;-70
2023/10/22 02:29:15;;;;;;;3.10;1.50;;;10.60;99.90;;;;;;4933691;29;20034;-70
2023/10/22 02:31:43;;;;;;;3.15;1.42;;;10.60;99.90;;;;;;4922454;29;20047;-70
2023/10/22 02:34:09;;;;;;;7.03;1.75;;;10.50;99.90;;;;;;4927562;29;20038;-70
2023/10/22 02:36:36;;;;;;;5.43;1.90;;;10.60;99.90;;;;;;4927566;28;20033;-71
2023/10/22 02:39:04;;;;;;;7.05;2.72;;;10.60;99.90;;;;;;4926998;29;20031;-70
2023/10/22 02:41:30;;;;;;;4.03;1.10;;;10.60;99.90;;;;;;4922865;29;20035;-71
2023/10/22 02:43:57;;;;;;;1.38;0.68;;;10.60;99.90;;;;;;4934977;29;20091;-71
2023/10/22 02:46:23;;;;;;;1.67;0.93;;;10.50;99.90;;;;;;4928261;29;20032;-71
2023/10/22 02:48:49;;;;;;;1.65;0.82;;;10.50;99.90;;;;;;4936099;29;20036;-71
2023/10/22 02:51:15;;;;;;;7.30;1.08;;;10.50;99.90;;;;;;4927590;29;20138;-71
2023/10/22 02:53:40;;;;;;;1.20;0.88;;;10.40;99.90;;;;;;4924099;29;20028;-70
2023/10/22 02:56:09;;;;;;;1.42;0.82;;;10.30;99.90;;;;;;4927972;29;20094;-70
2023/10/22 02:58:38;;;;;;;1.20;0.30;;;10.30;99.90;;;;;;4934316;29;20039;-70
2023/10/22 03:01:07;;;;;;;8.77;0.85;;;10.30;99.90;;;;;;4930393;29;20049;-71
2023/10/22 03:03:38;;;;;;;2.25;1.38;;;10.20;99.90;;;;;;4929062;29;20036;-71
2023/10/22 03:06:05;;;;;;;;;;;10.20;99.90;;;;;;4928334;29;20063;-71
2023/10/22 03:08:31;;;;;;;0.77;0.57;;;10.10;99.90;;;;;;4931016;29;20303;-71
2023/10/22 03:10:57;;;;;;;2.72;1.35;;;10.20;99.90;;;;;;4928392;29;20039;-71
2023/10/22 03:13:22;;;;;;;1.25;0.60;;;10.10;99.90;;;;;;4933752;29;20039;-71
2023/10/22 03:15:48;;;;;;;3.05;0.90;;;10.10;99.90;;;;;;4932380;29;20102;-71
2023/10/22 03:18:14;;;;;;;6.25;1.02;;;10.10;99.90;;;;;;4946029;29;20052;-71
2023/10/22 03:20:39;;;;;;;3.17;0.88;;;10.00;99.90;;;;;;4934573;29;20027;-71
2023/10/22 03:23:06;;;;;;;2.28;0.88;;;10.00;99.90;;;;;;4924142;29;20032;-71
2023/10/22 03:25:33;;;;;;;3.65;1.13;;;10.00;99.90;;;;;;4928380;29;20032;-71
2023/10/22 03:28:00;;;;;;;5.10;0.50;;;10.00;99.90;;;;;;4920002;29;20358;-71
2023/10/22 03:30:26;;;;;;;4.88;0.98;;;9.90;99.90;;;;;;4939080;29;20033;-71
2023/10/22 03:32:55;;;;;;;3.63;1.55;;;9.90;99.90;;;;;;4922316;29;20027;-71
2023/10/22 03:35:22;;;;;;;1.67;0.68;;;9.90;99.90;;;;;;4926203;29;20084;-70
2023/10/22 03:37:48;;;;;;;1.60;0.90;;;9.90;99.90;;;;;;4930203;29;20031;-71
2023/10/22 03:40:13;;;;;;;1.33;0.80;;;9.90;99.90;;;;;;4918164;29;20035;-70
2023/10/22 03:42:39;;;;;;;2.03;1.00;;;10.00;99.90;;;;;;4919999;29;20134;-70
2023/10/22 03:45:06;;;;;;;2.20;0.45;;;10.00;99.90;;;;;;4919708;29;20036;-71
2023/10/22 03:47:32;;;;;;;1.50;0.90;;;10.00;99.90;;;;;;4933474;29;20035;-71
2023/10/22 03:49:58;;;;;;;1.00;0.50;;;10.00;99.90;;;;;;4930133;29;20090;-71
2023/10/22 03:52:24;;;;;;;1.75;0.95;;;10.00;99.90;;;;;;4929839;29;20043;-72
2023/10/22 03:54:49;;;;;;;4.90;1.02;;;10.00;99.90;;;;;;4935159;29;20062;-72
2023/10/22 03:57:15;;;;;;;1.38;0.85;;;10.00;99.90;;;;;;4930357;29;20105;-72
2023/10/22 03:59:41;;;;;;;1.52;0.80;;;10.00;99.90;;;;;;4934683;29;20039;-71
2023/10/22 04:02:06;;;;;;;3.33;0.65;;;9.90;99.90;;;;;;4921906;29;20032;-71
2023/10/22 04:04:32;;;;;;;1.23;0.57;;;10.00;99.90;;;;;;4925888;29;20171;-72
2023/10/22 04:06:58;;;;;;;0.60;0.60;;;10.00;99.90;;;;;;4930117;29;20075;-71
2023/10/22 04:09:24;;;;;;;1.55;0.77;;;10.00;99.90;;;;;;4926795;29;20499;-71
2023/10/22 04:11:49;;;;;;;2.63;0.80;;;10.00;99.90;;;;;;4925463;29;20436;-71
2023/10/22 04:14:16;;;;;;;2.15;1.02;;;10.00;99.90;;;;;;4926529;29;20028;-71
2023/10/22 04:16:41;;;;;;;1.10;0.70;;;9.90;99.90;;;;;;4925078;29;20122;-71
2023/10/22 04:19:07;;;;;;;0.57;0.57;;;9.90;99.90;;;;;;4932750;29;20110;-71
2023/10/22 04:21:33;;;;;;;2.03;0.68;;;9.90;99.90;;;;;;4926329;29;20059;-71
2023/10/22 04:23:59;;;;;;;2.30;0.68;;;9.90;99.90;;;;;;4911692;29;20424;-71
2023/10/22 04:26:26;;;;;;;7.38;1.45;;;9.90;99.90;;;;;;4916131;29;20047;-71
2023/10/22 04:28:52;;;;;;;1.17;0.47;;;9.90;99.90;;;;;;4914206;29;20059;-71
2023/10/22 04:31:18;;;;;;;5.65;1.20;;;9.90;99.90;;;;;;4943245;29;20067;-71
2023/10/22 04:33:44;;;;;;;1.33;0.65;;;9.90;99.90;;;;;;4930472;29;20389;-70
2023/10/22 04:36:19;;;;;;;1.23;0.60;;;10.00;99.90;;;;;;4926761;29;20024;-70
2023/10/22 04:38:44;;;;;;;4.07;0.52;;;10.00;99.90;;;;;;4923514;29;20111;-71
2023/10/22 04:41:13;;;;;;;0.60;0.52;;;10.00;99.90;;;;;;4941674;29;20115;-71
2023/10/22 04:43:39;;;;;;;1.75;0.77;;;10.00;99.90;;;;;;4934821;29;20043;-71
2023/10/22 04:46:05;;;;;;;3.45;1.35;;;10.00;99.90;;;;;;4927589;29;20745;-70
2023/10/22 04:48:31;;;;;;;2.83;1.25;;;10.00;99.90;;;;;;4913706;29;20036;-70
2023/10/22 04:51:00;;;;;;;6.00;0.60;;;9.90;99.90;;;;;;4925637;29;20066;-70
2023/10/22 04:53:26;;;;;;;2.20;1.08;;;10.00;99.90;;;;;;4924834;29;20039;-70
2023/10/22 04:55:56;;;;;;;1.98;0.82;;;10.00;99.90;;;;;;4926393;29;20126;-70
2023/10/22 04:58:22;;;;;;;1.83;0.60;;;10.00;99.90;;;;;;4924222;29;20032;-70
2023/10/22 05:00:49;;;;;;;0.93;0.68;;;10.10;99.90;;;;;;4928914;29;20051;-69
2023/10/22 05:03:15;;;;;;;1.08;0.93;;;10.10;99.90;;;;;;4907869;29;20035;-69
2023/10/22 05:05:41;;;;;;;1.45;1.20;;;10.10;99.90;;;;;;4918544;29;20451;-70
2023/10/22 05:08:07;;;;;;;2.67;1.42;;;10.10;99.90;;;;;;4942021;29;20043;-71
2023/10/22 05:10:39;;;;;;;1.98;0.55;;;10.10;99.90;;;;;;4933842;29;20086;-71
2023/10/22 05:13:08;;;;;;;1.48;0.75;;;10.20;99.90;;;;;;4928153;29;20089;-71
2023/10/22 05:15:34;;;;;;;3.22;1.58;;;10.30;99.90;;;;;;4925271;29;20514;-71
2023/10/22 05:18:05;;;;;;;3.08;0.73;;;10.30;99.90;;;;;;4921969;29;20040;-71
2023/10/22 05:20:31;;;;;;;4.88;1.42;;;10.30;99.90;;;;;;4917062;29;20068;-71
2023/10/22 05:22:57;;;;;;;5.63;0.45;;;10.30;99.90;;;;;;4929328;29;20036;-71
2023/10/22 05:25:23;;;;;;;0.77;0.60;;;10.30;99.90;;;;;;4932467;29;20034;-71
2023/10/22 05:27:49;;;;;;;0.57;0.45;;;10.40;99.90;;;;;;4910510;29;20033;-72
2023/10/22 05:30:15;;;;;;;1.23;0.45;;;10.40;99.90;;;;;;4862706;29;20170;-71
2023/10/22 05:32:41;;;;;;;3.25;1.02;;;10.40;99.90;;;;;;4926618;29;20036;-71
2023/10/22 05:35:07;;;;;;;1.45;0.43;;;10.50;99.90;;;;;;4900736;29;20036;-72
2023/10/22 05:37:34;;;;;;;1.42;0.68;;;10.50;99.90;;;;;;4918946;29;20064;-71
2023/10/22 05:40:00;;;;;;;0.47;0.40;;;10.50;99.90;;;;;;4918474;28;20024;-71
2023/10/22 05:42:26;;;;;;;1.77;0.65;;;10.50;99.90;;;;;;4923802;29;20043;-71
2023/10/22 05:44:52;;;;;;;0.40;0.40;;;10.60;99.90;;;;;;4932144;29;20035;-71
2023/10/22 05:47:18;;;;;;;12.93;1.13;;;10.70;99.90;;;;;;4927589;29;20054;-70
2023/10/22 05:49:44;;;;;;;2.17;0.70;;;10.70;99.90;;;;;;4926889;29;20064;-70
2023/10/22 05:52:10;;;;;;;2.28;1.08;;;10.80;99.90;;;;;;4921181;29;20043;-70
2023/10/22 05:54:36;;;;;;;2.25;0.50;;;10.80;99.90;;;;;;4916312;29;20169;-69
2023/10/22 05:57:02;;;;;;;1.85;0.70;;;10.90;99.90;;;;;;4916779;29;20037;-69
2023/10/22 05:59:28;;;;;;;2.03;0.43;;;10.90;99.90;;;;;;4939116;29;20532;-70
2023/10/22 06:01:54;;;;;;;2.03;0.50;;;10.90;99.90;;;;;;4920877;29;20042;-70
2023/10/22 06:04:20;;;;;;;1.85;0.75;;;11.00;99.90;;;;;;4915630;29;20409;-69
2023/10/22 06:06:46;;;;;;;1.10;0.45;;;11.10;99.90;;;;;;4922345;29;20115;-69
2023/10/22 06:09:12;;;;;;;2.83;1.00;;;11.20;99.90;;;;;;4916552;29;20060;-70
2023/10/22 06:11:39;;;;;;;1.23;0.50;;;11.20;99.90;;;;;;4925707;29;20503;-68
2023/10/22 06:14:05;;;;;;;1.25;0.38;;;11.30;99.90;;;;;;4920180;29;20496;-69
2023/10/22 06:16:32;;;;;;;2.30;0.70;;;11.40;99.90;;;;;;4923362;29;20090;-69
2023/10/22 06:18:58;;;;;;;2.50;0.68;;;11.40;99.90;;;;;;4928741;29;20028;-69
2023/10/22 06:21:24;;;;;;;0.88;0.45;;;11.40;99.90;;;;;;4931749;29;20059;-69
2023/10/22 06:23:50;;;;;;;1.55;0.60;;;11.50;99.90;;;;;;4919680;29;20059;-69
2023/10/22 06:26:16;;;;;;;0.55;0.32;;;11.40;99.90;;;;;;4927684;29;20501;-69
2023/10/22 06:28:42;;;;;;;0.38;0.38;;;11.40;99.90;;;;;;4919336;29;20067;-73
2023/10/22 06:31:11;;;;;;;0.55;0.35;;;11.40;99.90;;;;;;4931062;29;20039;-70
2023/10/22 06:33:40;;;;;;;4.05;1.13;;;11.30;99.90;;;;;;4935848;29;20039;-72
2023/10/22 06:36:14;;;;;;;0.75;0.55;;;11.30;99.90;;;;;;4927346;29;20039;-70
2023/10/22 06:38:41;;;;;;;2.70;0.70;;;11.30;99.90;;;;;;4913344;29;20373;-69
2023/10/22 06:41:13;;;;;;;1.50;0.50;;;11.30;99.90;;;;;;4923180;29;20063;-69
2023/10/22 06:43:39;;;;;;;9.90;1.30;;;11.30;99.90;;;;;;4924073;29;20049;-69
2023/10/22 06:46:05;;;;;;;4.40;0.70;;;11.30;99.90;;;;;;4927965;29;20481;-69
2023/10/22 06:48:30;;;;;;;1.45;0.55;;;11.40;99.90;;;;;;4931341;29;20040;-69
2023/10/22 06:50:56;;;;;;;3.30;0.68;;;11.40;99.90;;;;;;4926751;29;20047;-69
2023/10/22 06:53:22;;;;;;;2.40;0.47;;;11.40;99.90;;;;;;4918143;29;20036;-69
2023/10/22 06:55:48;;;;;;;1.63;0.40;;;11.40;99.90;;;;;;4928881;29;20422;-69
2023/10/22 06:58:13;;;;;;;6.13;0.98;;;11.40;99.90;;;;;;4924456;29;20040;-70
2023/10/22 07:00:39;;;;;;;0.55;0.52;;;11.40;99.90;;;;;;4919091;29;20501;-71
2023/10/22 07:03:05;;;;;;;1.23;0.88;;;11.50;99.90;;;;;;4939756;29;20036;-70
2023/10/22 07:05:31;;;;;;;3.08;0.70;;;11.50;99.90;;;;;;4935967;29;20035;-69
2023/10/22 07:07:58;;;;;;;6.65;0.98;;;11.50;99.90;;;;;;4930605;29;20134;-69
2023/10/22 07:10:23;;;;;;;2.15;0.60;;;11.40;99.90;;;;;;4935148;29;20036;-72
2023/10/22 07:12:50;;;;;;;6.93;1.00;;;11.30;99.90;;;;;;4930517;29;20046;-70
2023/10/22 07:15:16;;;;;;;6.70;1.20;;;11.30;99.90;;;;;;4935550;28;20057;-71
2023/10/22 07:17:42;;;;;;;0.70;0.60;;;11.10;99.90;;;;;;4929494;29;20098;-72
2023/10/22 07:20:08;;;;;;;0.80;0.45;;;11.20;99.90;;;;;;4933798;29;20023;-70
2023/10/22 07:22:34;;;;;;;1.52;0.65;;;11.30;99.90;;;;;;4929031;29;20028;-71
2023/10/22 07:25:00;;;;;;;5.43;1.85;;;11.30;99.90;;;;;;4922458;29;20124;-71
2023/10/22 07:27:25;;;;;;;4.18;0.95;;;11.40;99.90;;;;;;4928184;29;20035;-71
2023/10/22 07:29:51;;;;;;;2.25;1.17;;;11.60;99.90;;;;;;4930932;29;20055;-70
2023/10/22 07:32:17;;;;;;;8.85;3.03;;;11.70;99.90;;;;;;4917150;29;20039;-70
2023/10/22 07:34:42;;;;;;;8.57;2.38;;;11.90;99.90;;;;;;4936295;29;20118;-70
2023/10/22 07:37:08;;;;;;;2.42;0.75;;;12.20;99.90;;;;;;4923483;29;20113;-71
2023/10/22 07:39:34;;;;;;;3.03;1.40;;;12.50;99.90;;;;;;4930293;29;20024;-71
2023/10/22 07:41:59;;;;;;;6.20;0.90;;;12.70;99.90;;;;;;4926335;29;20028;-71
2023/10/22 07:44:25;;;;;;;1.42;0.30;;;12.80;99.90;;;;;;4926508;29;20103;-71
2023/10/22 07:46:51;;;;;;;1.60;0.40;;;12.90;99.90;;;;;;4924582;29;20083;-70
2023/10/22 07:49:17;;;;;;;0.68;0.32;;;13.00;99.90;;;;;;4931673;29;20083;-71
2023/10/22 07:51:42;;;;;;;1.30;0.40;;;13.00;99.90;;;;;;4924316;29;20058;-71
2023/10/22 07:54:08;;;;;;;9.25;2.17;;;13.00;99.90;;;;;;4927823;29;20038;-70
2023/10/22 07:56:34;;;;;;;0.75;0.40;;;13.20;99.90;;;;;;4927781;29;20054;-72
2023/10/22 07:59:00;;;;;;;6.28;0.80;;;13.30;99.90;;;;;;4934671;29;20367;-73
2023/10/22 08:01:26;;;;;;;1.77;0.50;;;13.20;99.90;;;;;;4934951;29;20040;-72
2023/10/22 08:03:52;;;;;;;7.82;0.73;;;13.20;99.90;;;;;;4951889;29;20028;-71
2023/10/22 08:06:17;;;;;;;0.20;0.20;;;13.40;99.90;;;;;;4944013;29;20030;-73
2023/10/22 08:08:43;;;;;;;1.45;0.80;;;13.40;99.90;;;;;;4925808;29;20435;-73
2023/10/22 08:11:09;;;;;;;1.08;0.30;;;13.60;99.90;;;;;;4928034;29;20039;-72
2023/10/22 08:13:35;;;;;;;5.75;0.47;;;13.80;99.90;;;;;;4928104;29;20087;-70
2023/10/22 08:16:05;;;;;;;4.05;0.93;;;13.80;99.90;;;;;;4924228;29;20058;-71
2023/10/22 08:18:32;;;;;;;3.95;0.68;;;13.80;99.90;;;;;;4918574;29;20063;-72
2023/10/22 08:21:06;;;;;;;3.90;0.80;;;13.70;99.90;;;;;;4918703;29;20067;-71
2023/10/22 08:23:32;;;;;;;5.35;0.50;;;13.70;99.90;;;;;;4912335;29;20077;-71
2023/10/22 08:25:58;;;;;;;1.23;0.63;;;13.90;99.90;;;;;;4911190;29;20497;-70
2023/10/22 08:28:24;;;;;;;6.50;1.92;;;14.00;99.90;;;;;;4930072;29;20510;-70
2023/10/22 08:30:50;;;;;;;1.35;0.55;;;14.20;99.90;;;;;;4925326;29;20039;-71
2023/10/22 08:33:17;;;;;;;2.08;1.05;;;14.30;99.90;;;;;;4905127;29;20047;-71
2023/10/22 08:35:43;;;;;;;4.45;0.45;;;14.30;99.90;;;;;;4929346;29;20032;-70
2023/10/22 08:38:09;;;;;;;3.45;0.77;;;14.20;99.90;;;;;;4928894;29;20035;-69
2023/10/22 08:40:41;;;;;;;0.90;0.20;;;14.20;99.90;;;;;;4928509;29;20035;-71
2023/10/22 08:43:17;;;;;;;2.35;0.57;;;14.40;99.90;;;;;;4913422;29;20492;-71
2023/10/22 08:45:51;;;;;;;4.18;1.95;;;14.40;99.90;;;;;;4921132;29;20484;-71
2023/10/22 08:48:17;;;;;;;2.40;0.77;;;14.30;99.90;;;;;;4929413;29;20044;-71
2023/10/22 08:50:46;;;;;;;1.65;0.30;;;14.30;99.90;;;;;;4929983;29;20099;-71
2023/10/22 08:53:14;;;;;;;2.92;0.73;;;14.30;99.90;;;;;;4928437;29;20417;-71
2023/10/22 08:55:45;;;;;;;0.60;0.28;;;14.30;99.90;;;;;;4921005;29;20028;-69
2023/10/22 08:58:16;;;;;;;;;;;14.20;99.90;;;;;;4941879;29;20078;-70
2023/10/22 09:00:47;;;;;;;1.13;0.50;;;14.20;99.90;;;;;;4929997;29;19986;-70
2023/10/22 09:03:19;;;;;;;4.28;1.58;;;14.10;99.90;;;;;;4927346;29;20031;-70
2023/10/22 09:05:45;;;;;;;1.75;0.75;;;14.10;99.90;;;;;;4927430;29;20035;-70
2023/10/22 09:08:11;;;;;;;2.47;0.65;;;14.10;99.90;;;;;;4927968;29;20118;-71
2023/10/22 09:10:37;;;;;;;4.55;1.20;;;14.30;99.90;;;;;;4924935;29;20126;-70
2023/10/22 09:13:21;;;;;;;3.05;1.00;;;14.50;99.90;;;;;;4928373;29;20053;-71
2023/10/22 09:15:54;;;;;;;2.13;0.52;;;14.40;99.90;;;;;;4928319;29;20020;-71
2023/10/22 09:18:20;;;;;;;5.97;0.70;;;14.40;99.90;;;;;;4924161;29;20061;-71
2023/10/22 09:20:46;;;;;;;3.88;0.77;;;14.60;99.90;;;;;;4922952;29;20059;-71
2023/10/22 09:23:23;;;;;;;6.40;0.80;;;14.80;99.90;;;;;;4931583;29;20027;-70
2023/10/22 09:25:52;;;;;;;5.45;0.77;;;14.90;99.90;;;;;;4917518;29;20032;-70
2023/10/22 09:28:25;;;;;;;1.23;0.50;;;15.00;99.90;;;;;;4931583;29;20020;-67
2023/10/22 09:31:02;;;;;;;2.05;0.45;;;15.00;99.90;;;;;;4928576;29;20522;-70
2023/10/22 09:33:35;;;;;;;3.53;1.05;;;15.10;99.90;;;;;;4924028;29;20040;-70
2023/10/22 09:36:07;;;;;;;1.90;0.68;;;15.20;99.90;;;;;;4927799;29;20501;-70
2023/10/22 09:38:52;;;;;;;4.55;0.98;;;15.20;99.90;;;;;;4930205;29;20424;-73
2023/10/22 09:41:25;;;;;;;3.72;0.30;;;15.30;99.90;;;;;;4926726;29;20039;-71
2023/10/22 09:43:52;;;;;;;1.55;0.90;;;15.30;99.90;;;;;;4935038;29;20031;-71
2023/10/22 09:46:18;;;;;;;1.90;0.70;;;15.40;99.90;;;;;;4926433;29;20448;-70
2023/10/22 09:48:50;;;;;;;2.42;0.70;;;15.30;99.90;;;;;;4930772;29;20032;-72
2023/10/22 09:51:17;;;;;;;2.70;0.63;;;15.50;99.90;;;;;;4912151;29;20039;-69
2023/10/22 09:53:52;;;;;;;5.55;0.75;;;15.60;99.90;;;;;;4938016;29;20028;-72
2023/10/22 09:56:21;;;;;;;5.30;1.25;;;15.60;99.90;;;;;;4931293;29;20039;-72
2023/10/22 09:58:53;;;;;;;10.32;0.88;;;15.40;99.90;;;;;;4919515;29;20571;-71
2023/10/22 10:01:21;;;;;;;4.47;0.77;;;15.60;99.90;;;;;;4930882;29;20028;-72
2023/10/22 10:03:48;;;;;;;10.55;2.28;;;15.60;99.90;;;;;;4937238;29;20083;-72
2023/10/22 10:06:15;;;;;;;11.30;0.93;;;15.60;99.90;;;;;;4932084;29;20043;-71
2023/10/22 10:08:42;;;;;;;8.07;1.13;;;15.50;99.90;;;;;;4931275;29;20028;-71
2023/10/22 10:11:12;;;;;;;1.25;0.73;;;15.50;99.90;;;;;;4926920;29;20053;-71
2023/10/22 10:13:40;;;;;;;3.60;0.40;;;15.60;99.90;;;;;;4922858;29;20061;-70
2023/10/22 10:16:06;;;;;;;2.35;0.47;;;15.70;99.90;;;;;;4927522;29;20050;-71
2023/10/22 10:19:08;;;;;;;2.63;0.40;;;15.50;99.90;;;;;;4917422;29;20028;-71
2023/10/22 10:21:34;;;;;;;6.50;0.95;;;15.60;99.90;;;;;;4935852;29;20054;-71
2023/10/22 10:24:17;;;;;;;1.20;0.57;;;15.60;99.90;;;;;;4939350;29;20472;-72
2023/10/22 10:26:44;;;;;;;3.60;0.63;;;16.00;99.90;;;;;;4921206;29;20042;-72
2023/10/22 10:29:18;;;;;;;5.18;0.80;;;16.10;99.90;;;;;;4930965;29;20115;-72
2023/10/22 10:31:47;;;;;;;6.32;0.55;;;15.90;99.90;;;;;;4930804;29;20031;-72
2023/10/22 10:34:32;;;;;;;2.85;0.50;;;16.00;99.90;;;;;;4925004;29;20029;-71
2023/10/22 10:37:14;;;;;;;6.13;0.75;;;16.10;99.90;;;;;;4937109;29;20114;-71
2023/10/22 10:39:43;;;;;;;9.35;0.75;;;16.30;99.90;;;;;;4914172;29;20028;-71
2023/10/22 10:42:11;;;;;;;5.85;1.05;;;16.60;99.90;;;;;;4930869;29;20047;-71
2023/10/22 10:44:55;;;;;;;6.43;1.05;;;16.70;99.90;;;;;;4933143;29;20062;-71
2023/10/22 10:47:21;;;;;;;0.45;0.20;;;16.90;99.90;;;;;;4928710;29;20509;-71
2023/10/22 10:50:05;;;;;;;3.15;1.85;;;16.70;99.90;;;;;;4933004;29;20043;-71
2023/10/22 10:52:43;;;;;;;5.10;0.75;;;17.20;99.90;;;;;;4936568;29;20023;-70
2023/10/22 10:55:15;;;;;;;3.17;0.63;;;18.80;99.90;;;;;;4932304;29;20124;-71
2023/10/22 10:57:44;;;;;;;1.10;0.30;;;18.80;99.90;;;;;;4937100;29;21309;-70
2023/10/22 11:00:20;;;;;;;0.35;0.17;;;19.00;99.90;;;;;;4933835;29;20035;-71
2023/10/22 11:02:52;;;;;;;9.85;1.33;;;18.50;99.90;;;;;;4934145;29;20028;-72
2023/10/22 11:05:39;;;;;;;1.35;0.40;;;19.40;99.80;;;;;;4953644;29;20058;-70
2023/10/22 11:08:22;;;;;;;1.58;0.43;;;19.00;99.60;;;;;;4926617;29;20051;-72
2023/10/22 11:10:48;;;;;;;5.70;0.60;;;18.90;99.40;;;;;;4926332;29;20035;-71
2023/10/22 11:13:15;;;;;;;4.80;0.73;;;18.00;99.90;;;;;;4924921;29;20512;-71
2023/10/22 11:15:40;;;;;;;6.28;1.48;;;19.30;99.50;;;;;;4932021;29;20035;-70
2023/10/22 11:18:11;;;;;;;7.57;0.75;;;19.80;98.40;;;;;;4926116;29;20547;-70
2023/10/22 11:20:38;;;;;;;3.10;0.63;;;20.50;97.00;;;;;;4913616;29;20036;-71
2023/10/22 11:23:17;;;;;;;5.80;0.73;;;20.10;97.60;;;;;;4932583;29;20090;-70
2023/10/22 11:25:44;;;;;;;3.35;0.50;;;18.60;99.20;;;;;;4929976;29;20086;-72
2023/10/22 11:28:10;;;;;;;3.63;0.98;;;18.40;99.90;;;;;;4935510;29;20059;-71
2023/10/22 11:30:39;;;;;;;7.05;0.70;;;18.40;99.90;;;;;;4921151;29;20036;-71
2023/10/22 11:33:13;;;;;;;3.90;0.50;;;18.20;99.90;;;;;;4930765;29;20648;-68
2023/10/22 11:35:39;;;;;;;10.60;0.90;;;17.10;99.90;;;;;;4922887;29;20043;-71
2023/10/22 11:38:08;;;;;;;7.10;1.45;;;17.10;99.90;;;;;;4934207;29;20428;-71
2023/10/22 11:40:36;;;;;;;8.43;1.80;;;17.10;99.90;;;;;;4931231;29;20416;-70
2023/10/22 11:43:13;;;;;;;5.18;0.88;;;17.50;99.90;;;;;;4932813;29;20024;-71
2023/10/22 11:45:57;;;;;;;2.58;0.60;;;19.10;99.70;;;;;;4927797;29;20171;-70
2023/10/22 11:48:25;;;;;;;2.13;0.45;;;18.90;98.90;;;;;;4933507;29;20032;-71
2023/10/22 11:51:00;;;;;;;5.65;0.90;;;18.00;99.90;;;;;;4912428;29;20107;-70
2023/10/22 11:53:41;;;;;;;3.30;1.00;;;17.60;99.90;;;;;;4926477;29;20075;-70
2023/10/22 11:56:07;;;;;;;3.47;0.47;;;17.60;99.90;;;;;;4924129;29;20032;-70
2023/10/22 11:58:32;;;;;;;1.42;0.32;;;18.90;99.90;;;;;;4931786;29;20566;-72
2023/10/22 12:00:58;;;;;;;5.13;1.35;;;19.80;98.30;;;;;;4929671;29;20031;-72
2023/10/22 12:03:24;;;;;;;3.22;1.83;;;19.30;98.40;;;;;;4933926;29;20023;-71
2023/10/22 12:05:50;;;;;;;9.60;0.63;;;18.50;98.80;;;;;;4931435;29;20039;-72
2023/10/22 12:08:15;;;;;;;0.93;0.50;;;17.70;99.90;;;;;;4927614;29;20110;-72
2023/10/22 12:10:41;;;;;;;9.40;1.15;;;17.20;99.90;;;;;;4922785;29;20043;-72
2023/10/22 12:13:08;;;;;;;0.98;0.40;;;17.00;99.90;;;;;;4923539;29;20031;-72
2023/10/22 12:15:34;;;;;;;2.38;0.38;;;17.80;99.90;;;;;;4926107;28;20031;-70
2023/10/22 12:18:00;;;;;;;1.63;0.40;;;17.80;99.90;;;;;;4933815;29;20024;-73
2023/10/22 12:20:26;;;;;;;1.85;0.68;;;17.40;99.90;;;;;;4919193;29;20036;-71
2023/10/22 12:22:52;;;;;;;3.88;0.47;;;17.50;99.90;;;;;;4942708;29;20045;-72
2023/10/22 12:25:18;;;;;;;9.30;1.63;;;17.20;99.90;;;;;;4931821;29;20119;-73
2023/10/22 12:27:44;;;;;;;1.80;0.80;;;17.30;99.90;;;;;;4929165;29;20114;-71
2023/10/22 12:30:10;;;;;;;3.03;0.60;;;18.30;99.90;;;;;;4928141;29;20036;-71
2023/10/22 12:32:36;;;;;;;3.65;1.60;;;19.40;97.70;;;;;;4922824;29;20040;-72
2023/10/22 12:35:05;;;;;;;6.85;0.82;;;19.20;97.50;;;;;;4918460;29;20091;-72
2023/10/22 12:37:30;;;;;;;5.63;0.75;;;19.20;97.10;;;;;;4940831;29;20070;-71
2023/10/22 12:39:56;;;;;;;8.15;0.70;;;18.40;98.30;;;;;;4930384;29;20493;-73
2023/10/22 12:42:22;;;;;;;9.60;1.13;;;18.30;98.70;;;;;;4932016;29;20034;-75
2023/10/22 12:44:48;;;;;;;2.55;0.70;;;18.20;97.80;;;;;;4924074;29;20039;-72
2023/10/22 12:47:14;;;;;;;4.03;0.82;;;18.80;97.40;;;;;;4926113;29;20042;-72
2023/10/22 12:49:44;;;;;;;1.80;0.65;;;20.30;95.70;;;;;;4916650;29;20039;-73